Time;durP1;ratioP1;P1;durP2;ratioP2;P2;SDS_P1;SDS_P2;PMS_P1;PMS_P2;Temp;Humidity;BMP_temperature;BMP_pressure;BME280_temperature;BME280_humidity;BME280_pressure;Samples;Min_cycle;Max_cycle;Signal;HPM_P1;HPM_P2
2021/06/11 00:01:28;;;;;;;18.53;14.07;;;16.40;99.90;;;;;;4177114;28;20217;-74
2021/06/11 00:03:29;;;;;;;18.33;14.20;;;16.40;99.90;;;;;;4171913;28;20240;-76
2021/06/11 00:05:30;;;;;;;18.13;13.93;;;16.40;99.90;;;;;;4184658;28;20213;-75
2021/06/11 00:07:34;;;;;;;20.30;14.30;;;16.40;99.90;;;;;;4173936;28;20325;-75
2021/06/11 00:09:35;;;;;;;17.70;13.83;;;16.40;99.90;;;;;;4177195;28;20238;-75
2021/06/11 00:11:36;;;;;;;19.53;13.70;;;16.40;99.90;;;;;;4175335;28;20218;-75
2021/06/11 00:13:37;;;;;;;18.73;14.20;;;16.30;99.90;;;;;;4179522;28;20240;-75
2021/06/11 00:15:39;;;;;;;18.73;13.90;;;16.30;99.90;;;;;;4179718;28;20210;-76
2021/06/11 00:17:40;;;;;;;18.10;13.87;;;16.30;99.90;;;;;;4164306;28;20219;-75
2021/06/11 00:19:41;;;;;;;18.40;13.97;;;16.30;99.90;;;;;;4162739;28;20222;-76
2021/06/11 00:21:42;;;;;;;17.63;13.67;;;16.30;99.90;;;;;;4164439;28;20233;-75
2021/06/11 00:23:45;;;;;;;19.27;13.93;;;16.20;99.90;;;;;;4174525;28;20602;-76
2021/06/11 00:25:46;;;;;;;18.20;13.10;;;16.20;99.90;;;;;;4179507;28;20206;-75
2021/06/11 00:27:47;;;;;;;18.73;13.93;;;16.20;99.90;;;;;;4167203;28;20218;-75
2021/06/11 00:29:49;;;;;;;19.83;13.97;;;16.10;99.90;;;;;;4163427;28;20217;-75
2021/06/11 00:31:50;;;;;;;18.37;13.70;;;16.10;99.90;;;;;;4177427;28;20281;-76
2021/06/11 00:33:51;;;;;;;19.10;13.67;;;16.10;99.90;;;;;;4174780;28;20302;-75
2021/06/11 00:35:53;;;;;;;18.40;14.03;;;16.10;99.90;;;;;;4174454;28;20587;-75
2021/06/11 00:37:54;;;;;;;17.77;14.43;;;16.10;99.90;;;;;;4172741;28;20240;-75
2021/06/11 00:39:58;;;;;;;17.80;13.87;;;16.00;99.90;;;;;;4173453;28;20212;-76
2021/06/11 00:42:01;;;;;;;21.47;14.33;;;15.90;99.90;;;;;;4177436;28;20651;-75
2021/06/11 00:44:02;;;;;;;19.87;14.90;;;16.00;99.90;;;;;;4163880;28;20735;-75
2021/06/11 00:46:03;;;;;;;18.77;13.83;;;16.00;99.90;;;;;;4169335;28;20214;-75
2021/06/11 00:48:05;;;;;;;19.13;13.83;;;16.00;99.90;;;;;;4163122;28;20223;-73
2021/06/11 00:50:08;;;;;;;20.80;14.30;;;16.00;99.90;;;;;;4169769;28;20574;-74
2021/06/11 00:52:09;;;;;;;18.50;14.43;;;16.00;99.90;;;;;;4175473;28;20214;-75
2021/06/11 00:54:11;;;;;;;19.10;14.50;;;16.00;99.90;;;;;;4168120;28;20241;-76
2021/06/11 00:56:14;;;;;;;18.43;14.23;;;15.90;99.90;;;;;;4175105;28;20208;-75
2021/06/11 00:58:16;;;;;;;22.90;14.93;;;15.90;99.90;;;;;;4178638;28;20220;-75
2021/06/11 01:00:18;;;;;;;20.77;14.57;;;15.90;99.90;;;;;;4178964;28;20678;-74
2021/06/11 01:02:22;;;;;;;18.27;13.50;;;15.80;99.90;;;;;;4172153;28;20630;-75
2021/06/11 01:04:23;;;;;;;18.97;14.03;;;15.80;99.90;;;;;;4173198;28;20267;-76
2021/06/11 01:06:26;;;;;;;21.27;15.10;;;15.80;99.90;;;;;;4178981;28;20584;-75
2021/06/11 01:08:27;;;;;;;20.80;13.80;;;15.80;99.90;;;;;;4179867;28;20212;-74
2021/06/11 01:10:30;;;;;;;20.63;14.60;;;15.80;99.90;;;;;;4172299;28;20212;-76
2021/06/11 01:12:33;;;;;;;19.90;14.33;;;15.80;99.90;;;;;;4164320;28;20497;-75
2021/06/11 01:14:35;;;;;;;19.57;14.63;;;15.80;99.90;;;;;;4166597;28;20697;-76
2021/06/11 01:16:37;;;;;;;21.53;15.30;;;15.70;99.90;;;;;;4172494;28;20694;-76
2021/06/11 01:18:39;;;;;;;19.90;15.03;;;15.70;99.90;;;;;;4174726;28;20664;-75
2021/06/11 01:20:41;;;;;;;22.07;15.57;;;15.70;99.90;;;;;;4175538;28;20684;-74
2021/06/11 01:23:03;;;;;;;20.83;15.37;;;15.70;99.90;;;;;;4177223;28;20227;-75
2021/06/11 01:25:10;;;;;;;20.77;15.10;;;15.70;99.90;;;;;;4171057;28;20214;-75
2021/06/11 01:27:13;;;;;;;23.40;15.60;;;15.70;99.90;;;;;;4165412;28;20300;-75
2021/06/11 01:29:18;;;;;;;21.60;15.80;;;15.70;99.90;;;;;;4163795;28;20209;-75
2021/06/11 01:31:20;;;;;;;21.93;15.60;;;15.70;99.90;;;;;;4174765;28;20596;-74
2021/06/11 01:33:23;;;;;;;21.43;15.90;;;15.70;99.90;;;;;;4164939;28;20754;-75
2021/06/11 01:35:31;;;;;;;21.00;15.47;;;15.70;99.90;;;;;;4163096;28;20208;-76
2021/06/11 01:37:34;;;;;;;22.73;15.87;;;15.70;99.90;;;;;;4164154;28;20630;-74
2021/06/11 01:39:38;;;;;;;20.47;15.20;;;15.70;99.90;;;;;;4169302;28;20257;-76
2021/06/11 01:41:40;;;;;;;21.00;15.70;;;15.70;99.90;;;;;;4164164;28;20216;-76
2021/06/11 01:43:45;;;;;;;21.20;15.57;;;15.70;99.90;;;;;;4165505;28;20589;-76
2021/06/11 01:45:46;;;;;;;20.93;15.43;;;15.70;99.90;;;;;;4169625;28;20216;-76
2021/06/11 01:47:50;;;;;;;22.97;16.10;;;15.70;99.90;;;;;;4177601;28;20214;-75
2021/06/11 01:49:52;;;;;;;21.90;15.97;;;15.70;99.90;;;;;;4170454;28;20210;-76
2021/06/11 01:51:55;;;;;;;21.60;15.10;;;15.70;99.90;;;;;;4180992;28;20207;-76
2021/06/11 01:54:00;;;;;;;21.03;15.33;;;15.70;99.90;;;;;;4182524;28;20244;-75
2021/06/11 01:56:02;;;;;;;20.20;15.17;;;15.60;99.90;;;;;;4174275;28;20210;-76
2021/06/11 01:58:06;;;;;;;20.07;15.47;;;15.60;99.90;;;;;;4173580;28;20587;-75
2021/06/11 02:00:11;;;;;;;19.97;15.37;;;15.60;99.90;;;;;;4180902;28;20656;-76
2021/06/11 02:02:13;;;;;;;21.40;15.17;;;15.60;99.90;;;;;;4180420;28;20265;-76
2021/06/11 02:04:14;;;;;;;20.87;15.03;;;15.60;99.90;;;;;;4180850;28;20239;-75
2021/06/11 02:06:17;;;;;;;20.03;15.47;;;15.50;99.90;;;;;;4175801;28;20662;-74
2021/06/11 02:08:19;;;;;;;20.33;15.03;;;15.60;99.90;;;;;;4176723;28;20261;-74
2021/06/11 02:10:23;;;;;;;19.97;14.47;;;15.50;99.90;;;;;;4176624;28;20221;-75
2021/06/11 02:12:24;;;;;;;21.57;16.30;;;15.50;99.90;;;;;;4170745;28;20583;-75
2021/06/11 02:14:25;;;;;;;21.40;15.03;;;15.50;99.90;;;;;;4167205;28;20240;-75
2021/06/11 02:16:31;;;;;;;21.27;15.70;;;15.50;99.90;;;;;;4175476;28;20219;-76
2021/06/11 02:18:33;;;;;;;20.43;15.57;;;15.50;99.90;;;;;;4177543;28;20216;-75
2021/06/11 02:20:34;;;;;;;19.13;14.13;;;15.50;99.90;;;;;;4171875;28;20212;-74
2021/06/11 02:22:37;;;;;;;20.27;15.23;;;15.50;99.90;;;;;;4165472;28;20595;-75
2021/06/11 02:24:39;;;;;;;22.00;15.10;;;15.50;99.90;;;;;;4166471;28;20232;-74
2021/06/11 02:26:41;;;;;;;19.83;15.20;;;15.50;99.90;;;;;;4166142;28;20236;-75
2021/06/11 02:28:43;;;;;;;20.40;14.97;;;15.40;99.90;;;;;;4176017;28;20209;-74
2021/06/11 02:30:44;;;;;;;20.20;14.53;;;15.50;99.90;;;;;;4179901;28;20206;-75
2021/06/11 02:32:47;;;;;;;21.67;15.33;;;15.50;99.90;;;;;;4166533;28;20213;-74
2021/06/11 02:34:48;;;;;;;25.87;15.47;;;15.50;99.90;;;;;;4179378;28;20232;-76
2021/06/11 02:36:49;;;;;;;20.83;15.03;;;15.50;99.90;;;;;;4173471;28;20722;-75
2021/06/11 02:38:51;;;;;;;23.00;15.00;;;15.40;99.90;;;;;;4166614;28;20625;-75
2021/06/11 02:40:53;;;;;;;23.33;15.90;;;15.50;99.90;;;;;;4168326;28;20263;-75
2021/06/11 02:42:59;;;;;;;21.17;15.47;;;15.50;99.90;;;;;;4164561;28;20603;-75
2021/06/11 02:45:05;;;;;;;20.50;15.30;;;15.50;99.90;;;;;;4170911;28;20690;-75
2021/06/11 02:47:12;;;;;;;21.30;14.90;;;15.50;99.90;;;;;;4172743;28;20272;-75
2021/06/11 02:49:21;;;;;;;20.30;15.07;;;15.50;99.90;;;;;;4175447;28;20206;-75
2021/06/11 02:51:28;;;;;;;21.37;14.90;;;15.40;99.90;;;;;;4178172;28;20687;-75
2021/06/11 02:53:31;;;;;;;22.60;14.90;;;15.50;99.90;;;;;;4168020;28;20235;-75
2021/06/11 02:55:34;;;;;;;21.07;14.80;;;15.40;99.90;;;;;;4175161;28;20218;-75
2021/06/11 02:57:43;;;;;;;20.27;15.60;;;15.40;99.90;;;;;;4179120;28;20718;-76
2021/06/11 02:59:49;;;;;;;21.37;14.97;;;15.40;99.90;;;;;;4165256;28;20211;-75
2021/06/11 03:01:54;;;;;;;19.90;14.53;;;15.40;99.90;;;;;;4165581;28;20212;-76
2021/06/11 03:03:58;;;;;;;19.47;14.57;;;15.40;99.90;;;;;;4181260;28;20235;-75
2021/06/11 03:06:03;;;;;;;20.90;15.30;;;15.40;99.90;;;;;;4171806;28;20289;-75
2021/06/11 03:08:08;;;;;;;18.73;14.57;;;15.40;99.90;;;;;;4168591;28;20564;-75
2021/06/11 03:10:12;;;;;;;20.03;15.03;;;15.30;99.90;;;;;;4176706;28;20554;-74
2021/06/11 03:12:14;;;;;;;20.40;14.73;;;15.30;99.90;;;;;;4171727;28;20317;-75
2021/06/11 03:14:17;;;;;;;22.50;15.70;;;15.40;99.90;;;;;;4180287;28;20300;-75
2021/06/11 03:16:18;;;;;;;23.37;15.03;;;15.30;99.90;;;;;;4173091;28;20215;-74
2021/06/11 03:18:27;;;;;;;22.63;15.17;;;15.30;99.90;;;;;;4182632;28;20210;-76
2021/06/11 03:20:35;;;;;;;20.97;15.27;;;15.30;99.90;;;;;;4174577;28;20237;-74
2021/06/11 03:22:44;;;;;;;22.43;15.80;;;15.30;99.90;;;;;;4172758;28;20218;-75
2021/06/11 03:24:52;;;;;;;21.23;14.90;;;15.30;99.90;;;;;;4170641;28;20601;-74
2021/06/11 03:27:02;;;;;;;21.97;14.20;;;15.30;99.90;;;;;;4180915;28;20213;-75
2021/06/11 03:29:08;;;;;;;19.67;15.03;;;15.30;99.90;;;;;;4180098;28;20207;-74
2021/06/11 03:31:14;;;;;;;22.47;14.83;;;15.30;99.90;;;;;;4174516;28;20199;-74
2021/06/11 03:33:20;;;;;;;18.67;14.20;;;15.30;99.90;;;;;;4169279;28;20230;-76
2021/06/11 03:35:27;;;;;;;21.97;15.63;;;15.30;99.90;;;;;;4172618;28;20218;-76
2021/06/11 03:37:32;;;;;;;22.87;15.13;;;15.30;99.90;;;;;;4163963;28;20222;-75
2021/06/11 03:39:40;;;;;;;23.50;15.73;;;15.30;99.90;;;;;;4176369;28;20208;-74
2021/06/11 03:41:42;;;;;;;19.37;14.80;;;15.30;99.90;;;;;;4178064;28;20206;-74
2021/06/11 03:43:45;;;;;;;22.13;15.40;;;15.30;99.90;;;;;;4166934;28;20232;-75
2021/06/11 03:45:47;;;;;;;19.97;15.20;;;15.30;99.90;;;;;;4164639;28;20693;-74
2021/06/11 03:47:49;;;;;;;22.40;14.93;;;15.40;99.90;;;;;;4169298;28;20273;-75
2021/06/11 03:49:53;;;;;;;21.03;14.93;;;15.30;99.90;;;;;;4164750;28;20736;-75
2021/06/11 03:51:56;;;;;;;21.80;15.43;;;15.30;99.90;;;;;;4174328;28;20623;-75
2021/06/11 03:53:59;;;;;;;21.50;15.00;;;15.40;99.90;;;;;;4180907;28;20290;-74
2021/06/11 03:56:06;;;;;;;21.63;14.93;;;15.40;99.90;;;;;;4164673;28;20207;-75
2021/06/11 03:58:12;;;;;;;19.67;14.60;;;15.40;99.90;;;;;;4176248;28;20214;-75
2021/06/11 04:00:14;;;;;;;19.80;14.60;;;15.50;99.90;;;;;;4173170;28;20212;-75
2021/06/11 04:02:16;;;;;;;20.00;14.53;;;15.50;99.90;;;;;;4174323;28;20211;-75
2021/06/11 04:04:18;;;;;;;21.23;15.40;;;15.50;99.90;;;;;;4178518;28;20230;-75
2021/06/11 04:06:25;;;;;;;25.13;15.87;;;15.60;99.90;;;;;;4172600;28;21000;-75
2021/06/11 04:08:30;;;;;;;19.87;15.07;;;15.50;99.90;;;;;;4171268;28;20223;-76
2021/06/11 04:10:35;;;;;;;21.33;15.13;;;15.60;99.90;;;;;;4163605;28;20222;-75
2021/06/11 04:12:42;;;;;;;23.73;16.07;;;15.60;99.90;;;;;;4164533;28;20201;-77
2021/06/11 04:14:49;;;;;;;22.27;15.20;;;15.60;99.90;;;;;;4175335;28;20228;-75
2021/06/11 04:16:53;;;;;;;22.50;15.80;;;15.60;99.90;;;;;;4165114;28;20204;-75
2021/06/11 04:18:57;;;;;;;23.20;15.57;;;15.60;99.90;;;;;;4163795;28;20296;-76
2021/06/11 04:21:00;;;;;;;22.80;16.00;;;15.70;99.90;;;;;;4173899;28;20211;-76
2021/06/11 04:23:05;;;;;;;21.20;15.43;;;15.70;99.90;;;;;;4168812;28;20578;-76
2021/06/11 04:25:07;;;;;;;23.50;14.83;;;15.70;99.90;;;;;;4163505;28;20277;-75
2021/06/11 04:27:11;;;;;;;19.47;14.40;;;15.80;99.90;;;;;;4172302;28;20217;-75
2021/06/11 04:29:16;;;;;;;22.10;15.10;;;15.80;99.90;;;;;;4180134;28;20212;-75
2021/06/11 04:31:18;;;;;;;21.50;15.80;;;15.90;99.90;;;;;;4186198;28;20733;-75
2021/06/11 04:33:21;;;;;;;21.53;15.53;;;15.90;99.90;;;;;;4185537;28;20236;-77
2021/06/11 04:35:24;;;;;;;21.87;15.83;;;15.90;99.90;;;;;;4166174;28;20217;-75
2021/06/11 04:37:25;;;;;;;21.17;15.77;;;16.00;99.90;;;;;;4163680;28;20260;-75
2021/06/11 04:39:26;;;;;;;23.37;16.33;;;16.00;99.90;;;;;;4172128;28;20582;-75
2021/06/11 04:41:28;;;;;;;25.27;16.93;;;16.00;99.90;;;;;;4170234;28;20603;-76
2021/06/11 04:43:30;;;;;;;20.63;15.33;;;16.00;99.90;;;;;;4172176;28;20226;-76
2021/06/11 04:45:32;;;;;;;20.30;15.53;;;16.00;99.90;;;;;;4171575;28;20213;-75
2021/06/11 04:47:33;;;;;;;20.23;14.70;;;16.10;99.90;;;;;;4175024;28;20228;-76
2021/06/11 04:49:35;;;;;;;20.57;15.77;;;16.10;99.90;;;;;;4177525;28;20244;-75
2021/06/11 04:51:37;;;;;;;21.20;15.90;;;16.10;99.90;;;;;;4176796;28;20212;-76
2021/06/11 04:53:38;;;;;;;24.73;15.90;;;16.20;99.90;;;;;;4165518;28;20623;-74
2021/06/11 04:55:39;;;;;;;25.37;15.83;;;16.10;99.90;;;;;;4164174;28;20219;-75
2021/06/11 04:57:41;;;;;;;22.37;15.60;;;16.20;99.90;;;;;;4175843;28;20215;-75
2021/06/11 04:59:42;;;;;;;21.07;16.13;;;16.20;99.90;;;;;;4179611;28;20213;-75
2021/06/11 05:01:45;;;;;;;22.93;16.67;;;16.20;99.90;;;;;;4179261;28;20225;-75
2021/06/11 05:03:46;;;;;;;21.37;15.80;;;16.20;99.90;;;;;;4175319;28;20242;-75
2021/06/11 05:05:48;;;;;;;24.00;16.40;;;16.20;99.90;;;;;;4174356;28;20224;-76
2021/06/11 05:07:49;;;;;;;20.37;15.70;;;16.30;99.90;;;;;;4177714;28;20226;-74
2021/06/11 05:09:50;;;;;;;20.57;15.90;;;16.20;99.90;;;;;;4164275;28;20216;-75
2021/06/11 05:11:51;;;;;;;22.10;16.30;;;16.20;99.90;;;;;;4161938;28;20221;-75
2021/06/11 05:13:52;;;;;;;22.97;16.97;;;16.20;99.90;;;;;;4170993;28;20650;-74
2021/06/11 05:15:54;;;;;;;21.10;16.37;;;16.20;99.90;;;;;;4175999;28;20211;-76
2021/06/11 05:18:03;;;;;;;21.80;16.20;;;16.20;99.90;;;;;;4164191;28;20213;-76
2021/06/11 05:20:05;;;;;;;23.73;17.53;;;16.30;99.90;;;;;;4170614;28;20663;-76
2021/06/11 05:22:07;;;;;;;20.53;15.83;;;16.20;99.90;;;;;;4168921;28;20212;-75
2021/06/11 05:24:08;;;;;;;23.33;16.40;;;16.20;99.90;;;;;;4178613;28;20233;-76
2021/06/11 05:26:09;;;;;;;23.03;16.97;;;16.20;99.90;;;;;;4178542;28;20689;-76
2021/06/11 05:28:11;;;;;;;22.63;16.87;;;16.20;99.90;;;;;;4175075;28;20666;-76
2021/06/11 05:30:13;;;;;;;22.30;16.73;;;16.20;99.90;;;;;;4170713;28;20205;-76
2021/06/11 05:32:15;;;;;;;21.47;16.17;;;16.20;99.90;;;;;;4171817;28;20209;-76
2021/06/11 05:34:17;;;;;;;24.90;16.00;;;16.30;99.90;;;;;;4170389;28;20244;-75
2021/06/11 05:36:18;;;;;;;24.47;16.30;;;16.30;99.90;;;;;;4166905;28;20214;-75
2021/06/11 05:38:20;;;;;;;21.33;16.07;;;16.30;99.90;;;;;;4168919;28;20216;-75
2021/06/11 05:40:21;;;;;;;21.77;16.23;;;16.30;99.90;;;;;;4184171;28;20217;-75
2021/06/11 05:42:22;;;;;;;19.67;15.17;;;16.30;99.90;;;;;;4187169;28;20220;-75
2021/06/11 05:44:24;;;;;;;19.93;15.50;;;16.40;99.90;;;;;;4187559;28;20224;-75
2021/06/11 05:46:25;;;;;;;21.37;15.83;;;16.40;99.90;;;;;;4182169;28;20221;-76
2021/06/11 05:48:26;;;;;;;19.60;14.97;;;16.40;99.90;;;;;;4172843;28;20213;-76
2021/06/11 05:50:30;;;;;;;23.07;16.37;;;16.40;99.90;;;;;;4170668;28;20667;-76
2021/06/11 05:52:31;;;;;;;24.73;17.60;;;16.50;99.90;;;;;;4170836;28;20220;-75
2021/06/11 05:54:32;;;;;;;35.47;23.97;;;16.50;99.90;;;;;;4177055;28;20245;-71
2021/06/11 05:56:33;;;;;;;29.27;20.77;;;16.50;99.90;;;;;;4177082;28;20211;-73
2021/06/11 05:58:35;;;;;;;25.60;17.53;;;16.60;99.90;;;;;;4171967;28;20568;-70
2021/06/11 06:00:36;;;;;;;20.90;16.03;;;16.70;99.90;;;;;;4169810;28;20210;-79
2021/06/11 06:02:37;;;;;;;22.70;15.60;;;16.70;99.90;;;;;;4166417;28;20506;-74
2021/06/11 06:04:39;;;;;;;20.00;15.23;;;16.80;99.90;;;;;;4150678;28;20731;-74
2021/06/11 06:06:41;;;;;;;23.23;15.63;;;16.80;99.90;;;;;;4169395;28;20221;-74
2021/06/11 06:08:42;;;;;;;20.07;14.53;;;16.80;99.90;;;;;;4161183;28;20241;-74
2021/06/11 06:10:44;;;;;;;20.37;14.60;;;16.90;99.90;;;;;;4169755;28;20664;-76
2021/06/11 06:12:45;;;;;;;22.57;15.20;;;16.90;99.90;;;;;;4160345;28;20234;-75
2021/06/11 06:14:46;;;;;;;19.43;14.00;;;17.00;99.90;;;;;;4163484;28;20240;-76
2021/06/11 06:16:47;;;;;;;19.13;13.63;;;17.00;99.90;;;;;;4167976;28;20222;-74
2021/06/11 06:18:49;;;;;;;20.07;14.03;;;17.00;99.90;;;;;;4164027;28;20219;-75
2021/06/11 06:20:50;;;;;;;18.63;13.97;;;17.10;99.90;;;;;;4161295;28;20273;-74
2021/06/11 06:22:52;;;;;;;19.07;13.50;;;17.10;99.90;;;;;;4155470;28;20221;-75
2021/06/11 06:24:53;;;;;;;19.63;15.40;;;17.10;99.90;;;;;;4155383;28;20242;-74
2021/06/11 06:26:55;;;;;;;22.17;14.83;;;17.30;99.90;;;;;;4161147;28;20237;-74
2021/06/11 06:28:56;;;;;;;19.13;14.50;;;17.20;99.90;;;;;;4166878;28;20219;-75
2021/06/11 06:30:57;;;;;;;20.67;14.60;;;17.20;99.90;;;;;;4173717;28;20213;-75
2021/06/11 06:32:58;;;;;;;19.50;14.33;;;17.20;99.90;;;;;;4170583;28;20606;-77
2021/06/11 06:35:00;;;;;;;20.77;14.80;;;17.30;99.90;;;;;;4171658;28;20215;-75
2021/06/11 06:37:01;;;;;;;18.13;14.10;;;17.30;99.90;;;;;;4166364;28;20215;-75
2021/06/11 06:39:06;;;;;;;20.73;14.73;;;17.40;99.90;;;;;;4168502;28;20659;-75
2021/06/11 06:41:08;;;;;;;19.63;15.10;;;17.40;99.90;;;;;;4163028;28;20268;-75
2021/06/11 06:43:10;;;;;;;19.70;15.33;;;17.50;99.90;;;;;;4170141;28;20214;-75
2021/06/11 06:45:13;;;;;;;21.27;15.40;;;17.50;99.90;;;;;;4172392;28;20777;-75
2021/06/11 06:47:15;;;;;;;21.67;15.30;;;17.50;99.90;;;;;;4160597;28;20597;-75
2021/06/11 06:49:16;;;;;;;23.37;16.53;;;17.60;99.90;;;;;;4164355;28;20226;-75
2021/06/11 06:51:19;;;;;;;20.33;15.53;;;17.60;99.90;;;;;;4158952;28;20499;-75
2021/06/11 06:53:20;;;;;;;21.67;16.37;;;17.70;99.90;;;;;;4161047;28;20701;-75
2021/06/11 06:55:23;;;;;;;35.50;23.57;;;17.80;99.90;;;;;;4159405;28;20215;-78
2021/06/11 06:57:25;;;;;;;91.93;59.23;;;17.80;99.90;;;;;;4167883;28;20677;-79
2021/06/11 06:59:26;;;;;;;70.63;44.73;;;17.80;99.90;;;;;;4161004;28;20242;-76
2021/06/11 07:01:27;;;;;;;37.47;27.30;;;17.90;99.90;;;;;;4164156;28;20383;-75
2021/06/11 07:03:28;;;;;;;31.17;22.20;;;17.90;99.90;;;;;;4169098;28;20234;-77
2021/06/11 07:05:30;;;;;;;29.63;19.03;;;18.00;99.90;;;;;;4172900;28;20206;-76
2021/06/11 07:07:31;;;;;;;24.30;17.83;;;18.00;99.90;;;;;;4163924;28;20296;-77
2021/06/11 07:09:32;;;;;;;24.00;17.47;;;18.10;99.90;;;;;;4171295;28;20241;-76
2021/06/11 07:11:35;;;;;;;22.23;17.27;;;18.20;99.90;;;;;;4160279;28;20459;-76
2021/06/11 07:13:36;;;;;;;23.97;17.50;;;18.00;99.90;;;;;;4164104;28;20643;-75
2021/06/11 07:15:37;;;;;;;21.80;16.10;;;18.20;99.90;;;;;;4170524;28;20935;-75
2021/06/11 07:17:39;;;;;;;23.27;16.53;;;18.30;99.90;;;;;;4176573;28;20210;-75
2021/06/11 07:19:40;;;;;;;25.67;16.47;;;18.30;99.90;;;;;;4172555;28;20265;-79
2021/06/11 07:21:42;;;;;;;20.43;16.10;;;18.40;99.90;;;;;;4171988;28;20214;-75
2021/06/11 07:23:43;;;;;;;22.77;16.70;;;18.50;99.90;;;;;;4177816;28;20229;-76
2021/06/11 07:25:44;;;;;;;23.13;16.90;;;18.60;99.90;;;;;;4180639;28;20218;-76
2021/06/11 07:27:47;;;;;;;22.73;16.73;;;18.60;99.90;;;;;;4178165;28;20632;-75
2021/06/11 07:29:50;;;;;;;22.70;17.17;;;18.70;99.90;;;;;;4170135;28;20246;-75
2021/06/11 07:31:51;;;;;;;22.30;17.03;;;18.70;99.90;;;;;;4168666;28;20230;-75
2021/06/11 07:33:52;;;;;;;23.53;17.70;;;18.80;99.90;;;;;;4168056;28;20238;-75
2021/06/11 07:35:55;;;;;;;22.87;17.20;;;18.80;99.90;;;;;;4168537;28;20660;-75
2021/06/11 07:37:56;;;;;;;21.20;17.00;;;18.90;99.90;;;;;;4163032;28;20351;-75
2021/06/11 07:39:57;;;;;;;24.67;16.90;;;18.90;99.90;;;;;;4167656;28;20791;-75
2021/06/11 07:41:58;;;;;;;47.07;33.30;;;19.10;99.90;;;;;;4165058;28;20217;-75
2021/06/11 07:44:01;;;;;;;212.37;141.00;;;19.20;99.90;;;;;;4175446;28;20232;-74
2021/06/11 07:46:02;;;;;;;145.43;98.53;;;19.20;99.90;;;;;;4177094;28;20537;-75
2021/06/11 07:48:05;;;;;;;81.13;55.30;;;19.30;99.90;;;;;;4164874;28;20207;-74
2021/06/11 07:50:07;;;;;;;42.97;29.27;;;19.40;99.90;;;;;;4157204;28;20598;-75
2021/06/11 07:52:09;;;;;;;26.63;21.77;;;19.40;99.90;;;;;;4164729;28;20215;-75
2021/06/11 07:54:10;;;;;;;25.30;19.43;;;19.50;99.90;;;;;;4161983;28;20781;-75
2021/06/11 07:56:11;;;;;;;25.40;18.20;;;19.60;99.90;;;;;;4165096;28;20240;-75
2021/06/11 07:58:13;;;;;;;23.50;17.83;;;19.70;99.90;;;;;;4171453;28;20237;-74
2021/06/11 08:00:16;;;;;;;21.17;16.37;;;19.70;99.90;;;;;;4180864;28;20220;-75
2021/06/11 08:02:18;;;;;;;22.40;17.13;;;19.70;99.90;;;;;;4173921;28;20218;-74
2021/06/11 08:04:19;;;;;;;22.47;16.80;;;19.80;99.90;;;;;;4173880;28;20613;-74
2021/06/11 08:06:20;;;;;;;20.23;16.20;;;19.90;99.90;;;;;;4170741;28;20656;-74
2021/06/11 08:08:21;;;;;;;22.10;16.63;;;19.90;99.90;;;;;;4162895;28;20224;-74
2021/06/11 08:10:23;;;;;;;21.73;17.47;;;20.00;99.90;;;;;;4161135;28;20499;-75
2021/06/11 08:12:25;;;;;;;20.40;16.30;;;20.00;99.90;;;;;;4170935;28;20212;-74
2021/06/11 08:14:26;;;;;;;21.50;16.23;;;20.00;99.90;;;;;;4165766;28;20243;-75
2021/06/11 08:16:29;;;;;;;20.40;16.30;;;20.10;99.90;;;;;;4165905;28;20215;-75
2021/06/11 08:18:30;;;;;;;20.70;16.70;;;20.10;99.90;;;;;;4170441;28;20587;-75
2021/06/11 08:20:32;;;;;;;20.33;15.63;;;20.20;99.90;;;;;;4163460;28;20211;-75
2021/06/11 08:22:33;;;;;;;19.63;15.30;;;20.30;99.90;;;;;;4156749;28;20231;-74
2021/06/11 08:24:34;;;;;;;20.90;16.03;;;20.30;99.90;;;;;;4157218;28;20235;-74
2021/06/11 08:26:35;;;;;;;19.70;15.50;;;20.40;99.90;;;;;;4160860;28;20211;-76
2021/06/11 08:28:37;;;;;;;17.83;14.60;;;20.40;99.90;;;;;;4170815;28;20258;-76
2021/06/11 08:30:38;;;;;;;20.70;15.67;;;20.40;99.90;;;;;;4170435;28;20207;-75
2021/06/11 08:32:41;;;;;;;18.00;15.17;;;20.50;99.90;;;;;;4171769;28;20287;-76
2021/06/11 08:34:43;;;;;;;18.70;14.97;;;20.60;99.90;;;;;;4175109;28;20231;-76
2021/06/11 08:36:44;;;;;;;20.30;14.80;;;20.60;99.90;;;;;;4170156;28;20606;-75
2021/06/11 08:38:46;;;;;;;20.80;15.10;;;20.70;99.90;;;;;;4167625;28;20226;-75
2021/06/11 08:40:48;;;;;;;21.53;14.63;;;20.70;99.90;;;;;;4160420;28;20212;-75
2021/06/11 08:42:49;;;;;;;19.63;14.40;;;20.70;99.90;;;;;;4170836;28;20271;-76
2021/06/11 08:44:50;;;;;;;22.10;14.30;;;20.70;99.90;;;;;;4172638;28;20237;-75
2021/06/11 08:46:52;;;;;;;18.53;15.50;;;20.80;99.90;;;;;;4166022;28;20218;-77
2021/06/11 08:48:57;;;;;;;58.97;40.00;;;20.80;99.90;;;;;;4166959;28;20217;-76
2021/06/11 08:50:58;;;;;;;48.93;34.40;;;20.90;99.90;;;;;;4163146;28;20204;-75
2021/06/11 08:53:00;;;;;;;33.73;24.20;;;21.00;99.90;;;;;;4165018;28;20235;-76
2021/06/11 08:55:01;;;;;;;25.03;18.87;;;21.00;99.90;;;;;;4174015;28;20859;-75
2021/06/11 08:57:04;;;;;;;23.77;16.27;;;21.10;99.90;;;;;;4177992;28;20218;-75
2021/06/11 08:59:06;;;;;;;19.90;15.10;;;21.10;99.90;;;;;;4178923;28;20220;-77
2021/06/11 09:01:08;;;;;;;20.03;15.87;;;21.20;99.90;;;;;;4166637;28;20210;-77
2021/06/11 09:03:11;;;;;;;18.87;15.43;;;21.20;99.90;;;;;;4165198;28;20221;-76
2021/06/11 09:05:19;;;;;;;20.73;14.93;;;21.30;99.90;;;;;;4169826;28;20259;-76
2021/06/11 09:07:28;;;;;;;18.90;14.60;;;21.30;99.90;;;;;;4166836;28;20217;-76
2021/06/11 09:09:47;;;;;;;19.20;13.77;;;21.40;99.90;;;;;;4164099;28;20216;-76
2021/06/11 09:11:50;;;;;;;18.17;15.13;;;21.50;99.90;;;;;;4166202;28;20221;-76
2021/06/11 09:13:54;;;;;;;18.27;14.37;;;21.50;99.90;;;;;;4176689;28;20241;-76
2021/06/11 09:16:07;;;;;;;18.43;14.03;;;21.60;99.90;;;;;;4168634;28;20687;-76
2021/06/11 09:18:21;;;;;;;15.47;13.57;;;21.70;99.90;;;;;;4171402;28;20221;-76
2021/06/11 09:20:28;;;;;;;19.60;13.93;;;21.80;99.90;;;;;;4166387;28;20589;-76
2021/06/11 09:22:37;;;;;;;16.23;13.73;;;21.80;99.80;;;;;;4158441;28;20713;-76
2021/06/11 09:24:44;;;;;;;17.00;13.70;;;21.90;99.90;;;;;;4160393;28;20230;-77
2021/06/11 09:27:04;;;;;;;20.00;13.67;;;22.00;99.30;;;;;;4171782;28;20300;-76
2021/06/11 09:29:19;;;;;;;16.43;12.80;;;22.10;98.40;;;;;;4173114;28;20218;-76
2021/06/11 09:31:25;;;;;;;15.20;12.47;;;22.20;99.00;;;;;;4165066;28;20288;-76
2021/06/11 09:33:26;;;;;;;15.30;12.00;;;22.30;98.60;;;;;;4163937;28;20266;-76
2021/06/11 09:35:34;;;;;;;15.07;11.20;;;22.40;96.90;;;;;;4163934;28;20210;-76
2021/06/11 09:37:38;;;;;;;15.60;11.43;;;22.40;96.50;;;;;;4165118;28;20209;-76
2021/06/11 09:39:45;;;;;;;14.93;11.90;;;22.50;95.60;;;;;;4163106;28;20786;-76
2021/06/11 09:42:01;;;;;;;12.50;10.97;;;22.60;95.40;;;;;;4162497;28;20214;-76
2021/06/11 09:44:05;;;;;;;11.03;9.67;;;22.60;94.60;;;;;;4164154;28;20230;-76
2021/06/11 09:46:10;;;;;;;13.70;9.60;;;22.70;93.60;;;;;;4160338;28;20218;-76
2021/06/11 09:48:20;;;;;;;12.37;9.17;;;22.80;91.90;;;;;;4160220;28;21067;-78
2021/06/11 09:50:22;;;;;;;25.30;18.50;;;22.80;90.50;;;;;;4165257;28;20214;-78
2021/06/11 09:52:25;;;;;;;60.57;40.23;;;22.80;89.90;;;;;;4164121;28;20711;-74
2021/06/11 09:54:27;;;;;;;42.27;28.93;;;22.90;90.80;;;;;;4160616;28;20236;-75
2021/06/11 09:56:29;;;;;;;24.13;15.87;;;23.00;92.00;;;;;;4160769;28;20212;-76
2021/06/11 09:58:36;;;;;;;16.47;12.47;;;23.00;91.90;;;;;;4163799;28;20208;-76
2021/06/11 10:00:39;;;;;;;13.77;10.40;;;23.10;92.30;;;;;;4166273;28;20588;-75
2021/06/11 10:02:41;;;;;;;13.43;9.63;;;23.20;92.70;;;;;;4167033;28;20209;-77
2021/06/11 10:04:43;;;;;;;10.80;9.70;;;23.30;91.60;;;;;;4159869;28;20792;-76
2021/06/11 10:06:45;;;;;;;10.47;9.23;;;23.30;92.00;;;;;;4169447;28;20227;-80
2021/06/11 10:08:48;;;;;;;11.50;8.70;;;23.40;91.30;;;;;;4171150;28;20219;-78
2021/06/11 10:10:53;;;;;;;10.20;8.50;;;23.50;89.60;;;;;;4174767;28;20508;-78
2021/06/11 10:12:54;;;;;;;10.60;8.90;;;23.60;82.90;;;;;;4171961;28;20211;-79
2021/06/11 10:14:56;;;;;;;13.77;9.07;;;23.80;84.40;;;;;;4163793;28;20316;-79
2021/06/11 10:16:57;;;;;;;11.43;9.17;;;23.90;85.90;;;;;;4172342;28;20209;-76
2021/06/11 10:19:03;;;;;;;12.60;9.60;;;24.00;85.30;;;;;;4171047;28;20221;-80
2021/06/11 10:21:05;;;;;;;12.03;9.90;;;24.10;82.70;;;;;;4166138;28;20238;-76
2021/06/11 10:23:08;;;;;;;12.97;8.80;;;24.20;82.00;;;;;;4174725;28;20214;-75
2021/06/11 10:25:12;;;;;;;10.63;8.30;;;24.30;80.50;;;;;;4167570;28;20210;-78